createdAt,value
2017-06-23T03:30:45.419Z,10.87
2017-06-23T03:33:13.077Z,10.57
2017-06-23T03:35:40.741Z,10.80
2017-06-23T03:38:08.386Z,10.43
2017-06-23T03:40:36.033Z,11.13
2017-06-23T03:43:03.672Z,10.83
2017-06-23T03:45:32.107Z,12.20
2017-06-23T03:47:59.740Z,9.90
2017-06-23T03:50:27.797Z,10.20
2017-06-23T03:52:55.438Z,11.73
2017-06-23T03:55:23.096Z,10.67
2017-06-23T03:57:50.760Z,11.17
2017-06-23T04:00:18.439Z,11.40
2017-06-23T04:02:46.856Z,11.70
2017-06-23T04:05:14.514Z,11.13
2017-06-23T04:07:42.174Z,10.70
2017-06-23T04:10:09.950Z,11.30
2017-06-23T04:12:37.941Z,11.73
2017-06-23T04:15:05.698Z,12.27
2017-06-23T04:17:33.319Z,11.60
2017-06-23T04:20:00.985Z,11.50
2017-06-23T04:22:28.639Z,12.53
2017-06-23T04:24:56.350Z,12.40
2017-06-23T04:27:23.994Z,13.80
2017-06-23T04:29:52.984Z,12.30
2017-06-23T04:32:20.626Z,12.10
2017-06-23T04:34:48.281Z,12.00
2017-06-23T04:37:15.927Z,11.97
2017-06-23T04:39:43.991Z,11.50
2017-06-23T04:42:12.445Z,13.60
2017-06-23T04:44:40.077Z,11.83
2017-06-23T04:47:07.736Z,12.53
2017-06-23T04:49:35.407Z,12.53
2017-06-23T04:52:03.068Z,12.97
2017-06-23T04:54:30.721Z,12.03
2017-06-23T04:56:58.757Z,13.10
2017-06-23T04:59:27.171Z,13.50
2017-06-23T05:01:54.879Z,12.10
2017-06-23T05:04:22.540Z,13.30
2017-06-23T05:06:50.194Z,12.07
2017-06-23T05:09:17.859Z,14.90
2017-06-23T05:11:45.542Z,13.57
2017-06-23T05:14:13.969Z,13.20
2017-06-23T05:16:41.604Z,13.70
2017-06-23T05:19:09.653Z,13.80
2017-06-23T05:21:38.044Z,14.53
2017-06-23T05:24:05.696Z,12.97
2017-06-23T05:26:34.139Z,13.40
2017-06-23T05:29:01.773Z,13.90
2017-06-23T05:31:29.442Z,12.63
2017-06-23T05:33:57.094Z,12.63
2017-06-23T05:36:25.139Z,13.43
2017-06-23T05:38:52.793Z,14.03
2017-06-23T05:41:21.426Z,13.27
2017-06-23T05:43:49.458Z,14.50
2017-06-23T05:46:17.867Z,13.40
2017-06-23T05:48:45.547Z,13.03
2017-06-23T05:51:13.544Z,13.50
2017-06-23T05:53:41.254Z,12.57
2017-06-23T05:56:08.902Z,13.37
2017-06-23T05:58:37.091Z,13.83
2017-06-23T06:01:04.804Z,13.20
2017-06-23T06:03:32.452Z,13.47
2017-06-23T06:06:00.463Z,13.80
2017-06-23T06:08:28.877Z,13.10
2017-06-23T06:10:56.537Z,13.90
2017-06-23T06:13:24.499Z,14.00
2017-06-23T06:15:52.164Z,14.60
2017-06-23T06:18:19.817Z,12.83
2017-06-23T06:20:47.860Z,13.80
2017-06-23T06:23:15.503Z,14.77
2017-06-23T06:25:43.150Z,13.00
2017-06-23T06:28:11.177Z,14.07
2017-06-23T06:30:38.856Z,13.57
2017-06-23T06:33:06.511Z,13.40
2017-06-23T06:35:34.483Z,14.73
2017-06-23T06:38:02.144Z,13.83
2017-06-23T06:40:30.074Z,14.63
2017-06-23T06:42:58.880Z,14.37
2017-06-23T06:45:26.529Z,14.20
2017-06-23T06:47:54.933Z,12.67
2017-06-23T06:50:22.993Z,13.27
2017-06-23T06:52:50.677Z,13.20
2017-06-23T06:55:18.340Z,13.17
2017-06-23T06:57:46.292Z,11.93
2017-06-23T07:00:13.975Z,13.10
2017-06-23T07:02:41.625Z,14.63
2017-06-23T07:05:09.695Z,11.70
2017-06-23T07:07:37.339Z,11.80
2017-06-23T07:10:05.071Z,12.50
2017-06-23T07:12:33.065Z,13.70
2017-06-23T07:15:01.503Z,12.40
2017-06-23T07:17:29.145Z,13.60
2017-06-23T07:19:57.152Z,12.70
2017-06-23T07:22:24.807Z,13.27
2017-06-23T07:24:52.514Z,13.53
2017-06-23T07:27:20.575Z,13.10
2017-06-23T07:29:48.247Z,13.23
2017-06-23T07:32:15.908Z,15.10
2017-06-23T07:34:44.118Z,13.47
2017-06-23T07:37:11.770Z,12.67
2017-06-23T07:39:39.434Z,13.37
2017-06-23T07:42:07.474Z,13.43
2017-06-23T07:44:35.896Z,15.05
2017-06-23T07:47:03.610Z,13.20
2017-06-23T07:49:31.281Z,13.33
2017-06-23T07:51:58.942Z,13.60
2017-06-23T07:54:26.624Z,13.60
2017-06-23T07:56:54.255Z,14.07
2017-06-23T07:59:22.706Z,13.87
2017-06-23T08:01:50.382Z,13.10
2017-06-23T08:04:18.047Z,13.40
2017-06-23T08:06:46.505Z,12.67
2017-06-23T08:09:14.150Z,13.03
2017-06-23T08:11:41.822Z,13.07
2017-06-23T08:14:09.463Z,12.70
2017-06-23T08:16:37.133Z,14.57
2017-06-23T08:19:04.788Z,15.37
2017-06-23T08:21:32.804Z,11.00
2017-06-23T08:24:00.459Z,13.77
2017-06-23T08:26:28.136Z,11.97
2017-06-23T08:28:56.555Z,13.10
2017-06-23T08:31:24.203Z,12.40
2017-06-23T08:33:51.867Z,11.63
2017-06-23T08:36:19.556Z,11.23
2017-06-23T08:38:47.243Z,13.43
2017-06-23T08:41:14.938Z,12.00
2017-06-23T08:43:43.744Z,11.83
2017-06-23T08:46:11.406Z,11.70
2017-06-23T08:48:39.081Z,10.97
2017-06-23T08:51:07.137Z,11.57
2017-06-23T08:53:34.788Z,11.77
2017-06-23T08:56:02.434Z,11.77
2017-06-23T08:58:31.188Z,11.80
2017-06-23T09:00:58.842Z,11.70
2017-06-23T09:03:26.484Z,10.90
2017-06-23T09:05:54.518Z,11.77
2017-06-23T09:08:22.926Z,10.20
2017-06-23T09:10:50.559Z,10.47
2017-06-23T09:13:19.364Z,9.80
2017-06-23T09:15:47.021Z,9.90
2017-06-23T09:18:15.420Z,10.27
2017-06-23T09:20:43.478Z,10.13
2017-06-23T09:23:11.141Z,10.93
2017-06-23T09:25:38.759Z,9.17
2017-06-23T09:28:06.736Z,9.80
2017-06-23T09:30:34.462Z,11.10
2017-06-23T09:33:02.106Z,10.90
2017-06-23T09:35:30.152Z,9.90
2017-06-23T09:37:58.609Z,11.37
2017-06-23T09:40:26.268Z,10.13
2017-06-23T09:42:53.918Z,11.03
2017-06-23T09:45:21.561Z,11.48
2017-06-23T09:47:49.204Z,11.27
2017-06-23T09:50:16.837Z,8.73
2017-06-23T09:52:45.265Z,9.30
2017-06-23T09:55:12.918Z,8.50
2017-06-23T09:57:40.596Z,9.83
2017-06-23T10:00:08.223Z,9.97
2017-06-23T10:02:36.270Z,10.77
2017-06-23T10:05:04.676Z,11.00
2017-06-23T10:07:32.345Z,11.10
2017-06-23T10:10:00.027Z,9.80
2017-06-23T10:12:27.694Z,11.23
2017-06-23T10:14:55.387Z,9.90
2017-06-23T10:17:23.045Z,9.03
2017-06-23T10:19:51.872Z,8.63
2017-06-23T10:22:19.508Z,7.73
2017-06-23T10:24:47.141Z,8.10
2017-06-23T10:27:14.801Z,7.47
2017-06-23T10:29:42.451Z,8.30
2017-06-23T10:32:10.421Z,8.00
2017-06-23T10:34:38.082Z,9.67
2017-06-23T10:37:05.695Z,8.50
2017-06-23T10:39:34.422Z,7.97
2017-06-23T10:42:02.077Z,8.00
2017-06-23T10:44:29.712Z,8.83
2017-06-23T10:46:58.497Z,8.13
2017-06-23T10:49:26.134Z,7.57
2017-06-23T10:51:53.764Z,8.63
2017-06-23T10:54:21.715Z,7.80
2017-06-23T10:56:49.357Z,7.77
2017-06-23T10:59:17.017Z,7.90
2017-06-23T11:01:45.101Z,8.13
2017-06-23T11:04:12.745Z,6.80
2017-06-23T11:06:41.166Z,7.33
2017-06-23T11:09:09.167Z,7.97
2017-06-23T11:11:36.848Z,8.30
2017-06-23T11:14:05.245Z,9.00
2017-06-23T11:16:33.304Z,8.77
2017-06-23T11:19:01.738Z,7.73
2017-06-23T11:21:29.376Z,7.77
2017-06-23T11:23:57.336Z,6.90
2017-06-23T11:26:24.966Z,8.57
2017-06-23T11:28:52.675Z,7.60
2017-06-23T11:31:20.633Z,8.23
2017-06-23T11:33:48.293Z,8.20
2017-06-23T11:36:15.966Z,6.43
2017-06-23T11:38:43.632Z,8.43
2017-06-23T11:41:11.295Z,7.03
2017-06-23T11:43:38.961Z,7.10
2017-06-23T11:46:06.627Z,7.37
2017-06-23T11:48:34.307Z,7.37
2017-06-23T11:51:01.950Z,7.13
2017-06-23T11:53:29.619Z,7.93
2017-06-23T11:55:57.251Z,7.23
2017-06-23T11:58:25.303Z,6.40
2017-06-23T12:00:53.715Z,6.63
2017-06-23T12:03:21.376Z,6.93
2017-06-23T12:05:49.526Z,6.70
2017-06-23T12:08:17.167Z,7.73
2017-06-23T12:10:45.572Z,6.17
2017-06-23T12:13:13.634Z,6.80
2017-06-23T12:15:41.281Z,6.70
2017-06-23T12:18:08.936Z,5.80
2017-06-23T12:20:37.681Z,5.83
2017-06-23T12:23:05.329Z,6.13
2017-06-23T12:25:32.946Z,6.43
2017-06-23T12:28:01.389Z,7.37
2017-06-23T12:30:29.040Z,6.10
2017-06-23T12:32:57.072Z,6.10
2017-06-23T12:35:25.506Z,6.23
2017-06-23T12:37:53.157Z,5.27
2017-06-23T12:40:21.129Z,5.40
2017-06-23T12:42:48.768Z,4.40
2017-06-23T12:45:16.533Z,4.50
2017-06-23T12:47:44.501Z,5.23
2017-06-23T12:50:12.138Z,4.10
2017-06-23T12:52:40.574Z,5.30
2017-06-23T12:55:08.592Z,5.50
2017-06-23T12:57:36.998Z,4.30
2017-06-23T13:00:05.165Z,4.97
2017-06-23T13:02:33.126Z,4.93
2017-06-23T13:05:00.762Z,4.90
2017-06-23T13:07:29.151Z,4.57
2017-06-23T13:09:57.228Z,5.70
2017-06-23T13:12:25.760Z,5.10
2017-06-23T13:14:53.397Z,4.00
2017-06-23T13:17:21.406Z,5.00
2017-06-23T13:19:49.087Z,4.53
2017-06-23T13:22:17.502Z,4.90
2017-06-23T13:24:45.507Z,4.80
2017-06-23T13:27:14.092Z,4.70
2017-06-23T13:29:41.843Z,4.83
2017-06-23T13:32:09.859Z,4.10
2017-06-23T13:34:38.448Z,5.00
2017-06-23T13:37:06.106Z,4.10
2017-06-23T13:39:35.162Z,4.23
2017-06-23T13:42:02.805Z,5.60
2017-06-23T13:44:30.477Z,4.67
2017-06-23T13:46:58.474Z,5.10
2017-06-23T13:49:26.221Z,4.93
2017-06-23T13:51:53.896Z,4.27
2017-06-23T13:54:21.926Z,4.30
2017-06-23T13:56:49.573Z,5.03
2017-06-23T13:59:17.347Z,4.20
2017-06-23T14:01:46.443Z,4.83
2017-06-23T14:04:14.551Z,4.60
2017-06-23T14:06:42.393Z,4.50
2017-06-23T14:09:10.634Z,4.90
2017-06-23T14:11:39.056Z,4.20
2017-06-23T14:14:06.756Z,4.67
2017-06-23T14:16:34.771Z,3.20
2017-06-23T14:19:02.436Z,3.93
2017-06-23T14:21:30.203Z,4.13
2017-06-23T14:23:58.115Z,3.70
2017-06-23T14:26:25.875Z,4.00
2017-06-23T14:28:53.540Z,3.83
2017-06-23T14:31:21.204Z,4.13
2017-06-23T14:33:48.885Z,4.23
2017-06-23T14:36:16.519Z,5.07
2017-06-23T14:38:44.633Z,4.50
2017-06-23T14:41:13.039Z,4.80
2017-06-23T14:43:40.675Z,4.63
2017-06-23T14:46:08.318Z,4.23
2017-06-23T14:48:36.000Z,3.60
2017-06-23T14:51:04.061Z,4.83
2017-06-23T14:53:31.712Z,4.87
2017-06-23T14:55:59.391Z,5.40
2017-06-23T14:58:28.149Z,4.93
2017-06-23T15:00:55.811Z,4.80
2017-06-23T15:03:23.468Z,4.77
2017-06-23T15:05:51.477Z,5.43
2017-06-23T15:08:19.112Z,4.13
2017-06-23T15:10:46.771Z,4.70
2017-06-23T15:13:14.748Z,3.53
2017-06-23T15:15:42.409Z,4.40
2017-06-23T15:18:10.210Z,5.13
2017-06-23T15:20:38.230Z,4.17
2017-06-23T15:23:05.898Z,5.87
2017-06-23T15:25:34.356Z,4.50
2017-06-23T15:28:03.071Z,5.70
2017-06-23T15:30:30.725Z,4.33
2017-06-23T15:32:58.371Z,5.80
2017-06-23T15:35:26.384Z,5.60
2017-06-23T15:37:54.830Z,5.23
2017-06-23T15:40:22.478Z,4.90
2017-06-23T15:42:50.492Z,4.67
2017-06-23T15:45:18.981Z,4.80
2017-06-23T15:47:46.637Z,3.70
2017-06-23T15:50:16.294Z,4.78
2017-06-23T15:52:43.945Z,4.70
2017-06-23T15:55:11.592Z,4.77
2017-06-23T15:57:40.488Z,4.47
2017-06-23T16:00:08.140Z,4.77
2017-06-23T16:02:35.800Z,4.50
2017-06-23T16:05:03.472Z,5.50
2017-06-23T16:07:31.561Z,5.23
2017-06-23T16:09:59.318Z,5.70
2017-06-23T16:12:27.519Z,5.30
2017-06-23T16:14:55.627Z,5.10
2017-06-23T16:17:24.109Z,5.20
2017-06-23T16:19:53.483Z,5.80
2017-06-23T16:22:21.561Z,5.07
2017-06-23T16:24:49.167Z,4.93
2017-06-23T16:27:16.815Z,5.00
2017-06-23T16:29:44.478Z,5.80
2017-06-23T16:32:12.114Z,5.73
2017-06-23T16:34:39.776Z,5.20
2017-06-23T16:37:07.434Z,5.90
2017-06-23T16:39:35.102Z,5.57
2017-06-23T16:42:03.523Z,5.33
2017-06-23T16:44:31.567Z,5.30
2017-06-23T16:46:59.215Z,5.47
2017-06-23T16:49:27.631Z,5.37
2017-06-23T16:51:55.319Z,5.60
2017-06-23T16:54:22.966Z,5.30
2017-06-23T16:56:50.643Z,6.77
2017-06-23T16:59:18.500Z,5.40
2017-06-23T17:01:46.494Z,5.40
2017-06-23T17:04:14.153Z,5.40
2017-06-23T17:06:41.816Z,5.53
2017-06-23T17:09:09.824Z,5.77
2017-06-23T17:11:37.442Z,5.23
2017-06-23T17:14:05.169Z,6.00
2017-06-23T17:16:33.247Z,7.33
2017-06-23T17:19:00.974Z,6.73
2017-06-23T17:21:29.388Z,6.40
2017-06-23T17:23:57.434Z,5.77
2017-06-23T17:26:25.103Z,6.07
2017-06-23T17:28:52.740Z,6.03
2017-06-23T17:31:20.739Z,7.00
2017-06-23T17:33:48.377Z,5.27
2017-06-23T17:36:16.776Z,6.17
2017-06-23T17:38:44.774Z,6.13
2017-06-23T17:41:12.429Z,7.10
2017-06-23T17:43:40.073Z,6.40
2017-06-23T17:46:08.166Z,6.00
2017-06-23T17:48:36.228Z,4.53
2017-06-23T17:51:03.920Z,5.07
2017-06-23T17:53:32.222Z,5.23
2017-06-23T17:55:59.859Z,4.90
2017-06-23T17:58:27.705Z,5.37
2017-06-23T18:00:55.453Z,5.60
2017-06-23T18:03:23.155Z,5.00
2017-06-23T18:05:51.027Z,5.00
2017-06-23T18:08:18.784Z,5.33
2017-06-23T18:10:46.478Z,5.33
2017-06-23T18:13:14.111Z,6.30
2017-06-23T18:15:43.110Z,6.47
2017-06-23T18:18:10.747Z,6.23
2017-06-23T18:20:38.399Z,5.53
2017-06-23T18:23:06.075Z,5.60
2017-06-23T18:25:33.713Z,5.37
2017-06-23T18:28:01.495Z,5.90
2017-06-23T18:30:29.160Z,5.80
2017-06-23T18:32:57.060Z,4.83
2017-06-23T18:35:24.722Z,5.13
2017-06-23T18:37:52.845Z,5.20
2017-06-23T18:40:20.746Z,5.17
2017-06-23T18:42:48.570Z,5.17
2017-06-23T18:45:16.232Z,4.87
2017-06-23T18:47:43.892Z,4.73
2017-06-23T18:50:11.584Z,4.57
2017-06-23T18:52:39.260Z,4.43
2017-06-23T18:55:06.937Z,4.37
2017-06-23T18:57:34.920Z,4.70
2017-06-23T19:00:03.716Z,4.70
2017-06-23T19:02:31.529Z,5.10
2017-06-23T19:04:59.831Z,5.00
2017-06-23T19:07:27.473Z,5.10
2017-06-23T19:09:55.115Z,4.67
2017-06-23T19:12:22.783Z,5.97
2017-06-23T19:14:50.448Z,4.67
2017-06-23T19:17:18.105Z,5.53
2017-06-23T19:19:45.761Z,5.13
2017-06-23T19:22:13.715Z,5.73
2017-06-23T19:24:42.143Z,5.37
2017-06-23T19:27:09.768Z,4.80
2017-06-23T19:29:37.869Z,5.00
2017-06-23T19:32:05.523Z,5.10
2017-06-23T19:34:33.180Z,5.33
2017-06-23T19:37:01.216Z,5.10
2017-06-23T19:39:29.621Z,5.53
2017-06-23T19:41:57.386Z,4.90
2017-06-23T19:44:25.449Z,4.93
2017-06-23T19:46:53.118Z,5.00
2017-06-23T19:49:20.843Z,5.40
2017-06-23T19:51:50.337Z,5.10
2017-06-23T19:54:18.000Z,4.83
2017-06-23T19:56:45.663Z,4.63
2017-06-23T19:59:13.662Z,6.10
2017-06-23T20:01:41.313Z,6.30
2017-06-23T20:04:09.738Z,6.63
2017-06-23T20:06:37.766Z,5.37
2017-06-23T20:09:06.184Z,5.40
2017-06-23T20:11:33.836Z,5.70
2017-06-23T20:14:01.522Z,5.93
2017-06-23T20:16:29.163Z,5.70
2017-06-23T20:18:56.856Z,5.50
2017-06-23T20:21:24.514Z,5.70
2017-06-23T20:23:52.203Z,5.67
2017-06-23T20:26:20.075Z,6.40
2017-06-23T20:28:47.741Z,5.57
2017-06-23T20:31:16.157Z,5.73
2017-06-23T20:33:44.211Z,5.50
2017-06-23T20:36:11.866Z,5.20
2017-06-23T20:38:40.266Z,5.23
2017-06-23T20:41:07.945Z,5.67
2017-06-23T20:43:35.582Z,5.17
2017-06-23T20:46:03.265Z,4.90
2017-06-23T20:48:30.935Z,5.37
2017-06-23T20:50:58.607Z,5.37
2017-06-23T20:53:26.305Z,5.00
2017-06-23T20:55:54.743Z,4.97
2017-06-23T20:58:22.404Z,4.80
2017-06-23T21:00:50.470Z,6.77
2017-06-23T21:03:18.128Z,5.70
2017-06-23T21:05:45.763Z,4.60
2017-06-23T21:08:13.423Z,6.03
2017-06-23T21:10:41.135Z,5.53
2017-06-23T21:13:08.813Z,6.10
2017-06-23T21:15:36.452Z,5.70
2017-06-23T21:18:04.593Z,6.30
2017-06-23T21:20:32.278Z,5.80
2017-06-23T21:23:00.130Z,5.70
2017-06-23T21:25:27.795Z,7.10
2017-06-23T21:27:55.452Z,5.70
